sensor_id;sensor_type;location;lat;lon;timestamp;P1;durP1;ratioP1;P2;durP2;ratioP2
56043;SDS011;41912;51.022;3.664;2023-04-03T00:00:59;19.52;;;13.25;;
56043;SDS011;41912;51.022;3.664;2023-04-03T00:03:25;21.65;;;13.23;;
56043;SDS011;41912;51.022;3.664;2023-04-03T00:05:51;21.98;;;13.68;;
56043;SDS011;41912;51.022;3.664;2023-04-03T00:08:17;25.13;;;13.40;;
56043;SDS011;41912;51.022;3.664;2023-04-03T00:10:43;23.52;;;13.20;;
56043;SDS011;41912;51.022;3.664;2023-04-03T00:13:08;18.42;;;13.07;;
56043;SDS011;41912;51.022;3.664;2023-04-03T00:15:35;21.33;;;12.05;;
56043;SDS011;41912;51.022;3.664;2023-04-03T00:18:01;18.10;;;11.93;;
56043;SDS011;41912;51.022;3.664;2023-04-03T00:20:29;18.02;;;11.48;;
56043;SDS011;41912;51.022;3.664;2023-04-03T00:22:55;20.00;;;12.32;;
56043;SDS011;41912;51.022;3.664;2023-04-03T00:25:21;21.67;;;11.85;;
56043;SDS011;41912;51.022;3.664;2023-04-03T00:27:47;18.35;;;12.65;;
56043;SDS011;41912;51.022;3.664;2023-04-03T00:30:14;24.40;;;13.35;;
56043;SDS011;41912;51.022;3.664;2023-04-03T00:32:42;20.55;;;13.13;;
56043;SDS011;41912;51.022;3.664;2023-04-03T00:35:07;18.20;;;13.48;;
56043;SDS011;41912;51.022;3.664;2023-04-03T00:37:34;20.67;;;13.18;;
56043;SDS011;41912;51.022;3.664;2023-04-03T00:40:00;18.90;;;12.70;;
56043;SDS011;41912;51.022;3.664;2023-04-03T00:42:25;22.10;;;12.70;;
56043;SDS011;41912;51.022;3.664;2023-04-03T00:47:23;20.60;;;14.02;;
56043;SDS011;41912;51.022;3.664;2023-04-03T00:49:49;24.13;;;13.82;;
56043;SDS011;41912;51.022;3.664;2023-04-03T00:52:17;18.50;;;13.30;;
56043;SDS011;41912;51.022;3.664;2023-04-03T00:54:46;18.85;;;13.80;;
56043;SDS011;41912;51.022;3.664;2023-04-03T00:57:15;18.83;;;13.45;;
56043;SDS011;41912;51.022;3.664;2023-04-03T00:59:46;20.88;;;13.15;;
56043;SDS011;41912;51.022;3.664;2023-04-03T01:02:14;22.30;;;12.93;;
56043;SDS011;41912;51.022;3.664;2023-04-03T01:04:41;23.85;;;12.07;;
56043;SDS011;41912;51.022;3.664;2023-04-03T01:09:34;18.48;;;12.15;;
56043;SDS011;41912;51.022;3.664;2023-04-03T01:12:17;19.00;;;12.57;;
56043;SDS011;41912;51.022;3.664;2023-04-03T01:14:51;22.42;;;12.32;;
56043;SDS011;41912;51.022;3.664;2023-04-03T01:25:47;19.52;;;12.63;;
56043;SDS011;41912;51.022;3.664;2023-04-03T01:28:28;16.75;;;11.18;;
56043;SDS011;41912;51.022;3.664;2023-04-03T01:33:46;15.85;;;11.02;;
56043;SDS011;41912;51.022;3.664;2023-04-03T01:36:23;18.58;;;11.07;;
56043;SDS011;41912;51.022;3.664;2023-04-03T01:38:52;16.77;;;10.80;;
56043;SDS011;41912;51.022;3.664;2023-04-03T01:41:18;20.20;;;10.45;;
56043;SDS011;41912;51.022;3.664;2023-04-03T01:43:46;19.88;;;11.80;;
56043;SDS011;41912;51.022;3.664;2023-04-03T01:46:12;18.65;;;11.25;;
56043;SDS011;41912;51.022;3.664;2023-04-03T01:48:39;16.45;;;9.93;;
56043;SDS011;41912;51.022;3.664;2023-04-03T01:51:04;16.33;;;10.65;;
56043;SDS011;41912;51.022;3.664;2023-04-03T01:53:30;17.38;;;10.93;;
56043;SDS011;41912;51.022;3.664;2023-04-03T01:55:56;15.15;;;9.77;;
56043;SDS011;41912;51.022;3.664;2023-04-03T01:58:22;14.68;;;9.60;;
56043;SDS011;41912;51.022;3.664;2023-04-03T02:00:47;20.17;;;10.88;;
56043;SDS011;41912;51.022;3.664;2023-04-03T02:03:13;20.77;;;10.25;;
56043;SDS011;41912;51.022;3.664;2023-04-03T02:05:39;15.05;;;9.13;;
56043;SDS011;41912;51.022;3.664;2023-04-03T02:08:05;12.35;;;8.38;;
56043;SDS011;41912;51.022;3.664;2023-04-03T02:10:32;14.00;;;9.85;;
56043;SDS011;41912;51.022;3.664;2023-04-03T02:12:57;14.77;;;9.32;;
56043;SDS011;41912;51.022;3.664;2023-04-03T02:15:23;13.15;;;9.10;;
56043;SDS011;41912;51.022;3.664;2023-04-03T02:17:49;12.65;;;8.02;;
56043;SDS011;41912;51.022;3.664;2023-04-03T02:20:15;13.85;;;8.63;;
56043;SDS011;41912;51.022;3.664;2023-04-03T02:22:41;11.27;;;8.07;;
56043;SDS011;41912;51.022;3.664;2023-04-03T02:25:06;11.95;;;7.63;;
56043;SDS011;41912;51.022;3.664;2023-04-03T02:27:32;15.18;;;8.02;;
56043;SDS011;41912;51.022;3.664;2023-04-03T02:29:58;13.25;;;7.63;;
56043;SDS011;41912;51.022;3.664;2023-04-03T02:32:23;12.70;;;8.23;;
56043;SDS011;41912;51.022;3.664;2023-04-03T02:34:49;12.73;;;7.93;;
56043;SDS011;41912;51.022;3.664;2023-04-03T02:37:15;12.57;;;7.03;;
56043;SDS011;41912;51.022;3.664;2023-04-03T02:39:40;13.55;;;6.57;;
56043;SDS011;41912;51.022;3.664;2023-04-03T02:42:06;9.05;;;6.25;;
56043;SDS011;41912;51.022;3.664;2023-04-03T02:44:32;15.25;;;6.78;;
56043;SDS011;41912;51.022;3.664;2023-04-03T02:46:58;12.32;;;6.78;;
56043;SDS011;41912;51.022;3.664;2023-04-03T02:49:23;11.60;;;7.13;;
56043;SDS011;41912;51.022;3.664;2023-04-03T02:51:49;11.30;;;6.15;;
56043;SDS011;41912;51.022;3.664;2023-04-03T02:54:16;10.70;;;6.53;;
56043;SDS011;41912;51.022;3.664;2023-04-03T02:56:41;12.07;;;6.65;;
56043;SDS011;41912;51.022;3.664;2023-04-03T02:59:07;8.00;;;5.65;;
56043;SDS011;41912;51.022;3.664;2023-04-03T03:01:33;10.43;;;5.90;;
56043;SDS011;41912;51.022;3.664;2023-04-03T03:03:59;10.18;;;6.05;;
56043;SDS011;41912;51.022;3.664;2023-04-03T03:06:25;11.43;;;6.07;;
56043;SDS011;41912;51.022;3.664;2023-04-03T03:08:50;10.20;;;6.07;;
56043;SDS011;41912;51.022;3.664;2023-04-03T03:11:16;9.57;;;6.00;;
56043;SDS011;41912;51.022;3.664;2023-04-03T03:13:42;11.85;;;6.25;;
56043;SDS011;41912;51.022;3.664;2023-04-03T03:16:08;9.48;;;6.28;;
56043;SDS011;41912;51.022;3.664;2023-04-03T03:18:34;9.48;;;5.70;;
56043;SDS011;41912;51.022;3.664;2023-04-03T03:21:00;12.98;;;6.90;;
56043;SDS011;41912;51.022;3.664;2023-04-03T03:23:27;9.75;;;5.82;;
56043;SDS011;41912;51.022;3.664;2023-04-03T03:25:58;8.63;;;5.95;;
56043;SDS011;41912;51.022;3.664;2023-04-03T03:28:25;12.13;;;6.47;;
56043;SDS011;41912;51.022;3.664;2023-04-03T03:30:51;11.27;;;6.28;;
56043;SDS011;41912;51.022;3.664;2023-04-03T03:33:17;16.27;;;6.32;;
56043;SDS011;41912;51.022;3.664;2023-04-03T03:35:43;8.32;;;5.78;;
56043;SDS011;41912;51.022;3.664;2023-04-03T03:38:08;9.57;;;5.65;;
56043;SDS011;41912;51.022;3.664;2023-04-03T03:40:34;10.52;;;6.13;;
56043;SDS011;41912;51.022;3.664;2023-04-03T03:43:00;13.43;;;6.15;;
56043;SDS011;41912;51.022;3.664;2023-04-03T03:45:25;9.13;;;5.38;;
56043;SDS011;41912;51.022;3.664;2023-04-03T03:47:51;13.68;;;6.40;;
56043;SDS011;41912;51.022;3.664;2023-04-03T03:50:17;10.40;;;5.80;;
56043;SDS011;41912;51.022;3.664;2023-04-03T03:52:42;11.75;;;6.45;;
56043;SDS011;41912;51.022;3.664;2023-04-03T03:55:08;11.30;;;6.75;;
56043;SDS011;41912;51.022;3.664;2023-04-03T03:57:34;9.35;;;5.93;;
56043;SDS011;41912;51.022;3.664;2023-04-03T04:00:00;12.65;;;6.07;;
56043;SDS011;41912;51.022;3.664;2023-04-03T04:02:25;12.20;;;6.55;;
56043;SDS011;41912;51.022;3.664;2023-04-03T04:04:51;9.30;;;6.25;;
56043;SDS011;41912;51.022;3.664;2023-04-03T04:07:17;13.80;;;6.03;;
56043;SDS011;41912;51.022;3.664;2023-04-03T04:09:42;9.25;;;5.93;;
56043;SDS011;41912;51.022;3.664;2023-04-03T04:12:08;10.20;;;5.80;;
56043;SDS011;41912;51.022;3.664;2023-04-03T04:14:33;12.40;;;6.85;;
56043;SDS011;41912;51.022;3.664;2023-04-03T04:16:59;17.23;;;6.35;;
56043;SDS011;41912;51.022;3.664;2023-04-03T04:19:27;9.95;;;6.15;;
56043;SDS011;41912;51.022;3.664;2023-04-03T04:21:53;9.73;;;6.25;;
56043;SDS011;41912;51.022;3.664;2023-04-03T04:24:18;14.20;;;6.15;;
56043;SDS011;41912;51.022;3.664;2023-04-03T04:26:44;10.25;;;5.97;;
56043;SDS011;41912;51.022;3.664;2023-04-03T04:29:09;8.93;;;6.03;;
56043;SDS011;41912;51.022;3.664;2023-04-03T04:31:35;15.85;;;6.25;;
56043;SDS011;41912;51.022;3.664;2023-04-03T04:34:01;11.75;;;6.97;;
56043;SDS011;41912;51.022;3.664;2023-04-03T04:36:27;10.65;;;5.95;;
56043;SDS011;41912;51.022;3.664;2023-04-03T04:38:53;14.45;;;6.80;;
56043;SDS011;41912;51.022;3.664;2023-04-03T04:41:19;12.75;;;6.50;;
56043;SDS011;41912;51.022;3.664;2023-04-03T04:43:47;17.63;;;7.60;;
56043;SDS011;41912;51.022;3.664;2023-04-03T04:46:16;19.52;;;7.30;;
56043;SDS011;41912;51.022;3.664;2023-04-03T04:48:42;13.82;;;6.68;;
56043;SDS011;41912;51.022;3.664;2023-04-03T04:51:08;11.35;;;6.60;;
56043;SDS011;41912;51.022;3.664;2023-04-03T04:53:34;12.90;;;6.57;;
56043;SDS011;41912;51.022;3.664;2023-04-03T04:56:00;9.55;;;6.28;;
56043;SDS011;41912;51.022;3.664;2023-04-03T04:58:26;12.38;;;6.18;;
56043;SDS011;41912;51.022;3.664;2023-04-03T05:01:01;11.95;;;6.07;;
56043;SDS011;41912;51.022;3.664;2023-04-03T05:03:28;12.35;;;6.15;;
56043;SDS011;41912;51.022;3.664;2023-04-03T05:05:54;11.20;;;6.15;;
56043;SDS011;41912;51.022;3.664;2023-04-03T05:08:20;12.68;;;6.38;;
56043;SDS011;41912;51.022;3.664;2023-04-03T05:10:46;13.70;;;6.47;;
56043;SDS011;41912;51.022;3.664;2023-04-03T05:13:12;12.15;;;6.38;;
56043;SDS011;41912;51.022;3.664;2023-04-03T05:15:38;11.77;;;6.38;;
56043;SDS011;41912;51.022;3.664;2023-04-03T05:18:04;13.70;;;6.30;;
56043;SDS011;41912;51.022;3.664;2023-04-03T05:20:30;19.23;;;7.25;;
56043;SDS011;41912;51.022;3.664;2023-04-03T05:22:56;14.95;;;5.75;;
56043;SDS011;41912;51.022;3.664;2023-04-03T05:25:21;11.32;;;6.43;;
56043;SDS011;41912;51.022;3.664;2023-04-03T05:27:47;22.48;;;6.20;;
56043;SDS011;41912;51.022;3.664;2023-04-03T05:30:13;12.77;;;6.22;;
56043;SDS011;41912;51.022;3.664;2023-04-03T05:32:39;15.60;;;7.07;;
56043;SDS011;41912;51.022;3.664;2023-04-03T05:35:05;16.88;;;7.25;;
56043;SDS011;41912;51.022;3.664;2023-04-03T05:37:31;13.10;;;6.38;;
56043;SDS011;41912;51.022;3.664;2023-04-03T05:39:57;11.35;;;6.45;;
56043;SDS011;41912;51.022;3.664;2023-04-03T05:42:22;10.15;;;5.93;;
56043;SDS011;41912;51.022;3.664;2023-04-03T05:44:48;12.07;;;6.20;;
56043;SDS011;41912;51.022;3.664;2023-04-03T05:47:15;10.98;;;6.32;;
56043;SDS011;41912;51.022;3.664;2023-04-03T05:49:41;11.77;;;6.53;;
56043;SDS011;41912;51.022;3.664;2023-04-03T05:54:52;15.38;;;6.28;;
56043;SDS011;41912;51.022;3.664;2023-04-03T05:57:18;15.07;;;6.13;;
56043;SDS011;41912;51.022;3.664;2023-04-03T05:59:44;9.38;;;6.18;;
56043;SDS011;41912;51.022;3.664;2023-04-03T06:02:15;11.50;;;6.60;;
56043;SDS011;41912;51.022;3.664;2023-04-03T06:04:43;12.47;;;6.63;;
56043;SDS011;41912;51.022;3.664;2023-04-03T06:07:12;12.02;;;6.72;;
56043;SDS011;41912;51.022;3.664;2023-04-03T06:09:40;11.23;;;6.53;;
56043;SDS011;41912;51.022;3.664;2023-04-03T06:12:07;11.18;;;7.18;;
56043;SDS011;41912;51.022;3.664;2023-04-03T06:14:33;12.40;;;7.03;;
56043;SDS011;41912;51.022;3.664;2023-04-03T06:16:58;13.07;;;7.50;;
56043;SDS011;41912;51.022;3.664;2023-04-03T06:19:24;10.60;;;7.28;;
56043;SDS011;41912;51.022;3.664;2023-04-03T06:21:50;9.98;;;6.97;;
56043;SDS011;41912;51.022;3.664;2023-04-03T06:24:17;18.63;;;7.68;;
56043;SDS011;41912;51.022;3.664;2023-04-03T06:26:43;11.98;;;7.20;;
56043;SDS011;41912;51.022;3.664;2023-04-03T06:29:09;13.50;;;8.38;;
56043;SDS011;41912;51.022;3.664;2023-04-03T06:31:35;10.88;;;7.57;;
56043;SDS011;41912;51.022;3.664;2023-04-03T06:34:01;10.30;;;7.30;;
56043;SDS011;41912;51.022;3.664;2023-04-03T06:36:28;14.45;;;8.15;;
56043;SDS011;41912;51.022;3.664;2023-04-03T06:38:53;13.63;;;8.60;;
56043;SDS011;41912;51.022;3.664;2023-04-03T06:41:19;21.15;;;9.35;;
56043;SDS011;41912;51.022;3.664;2023-04-03T06:43:46;13.50;;;8.55;;
56043;SDS011;41912;51.022;3.664;2023-04-03T06:46:15;19.83;;;9.20;;
56043;SDS011;41912;51.022;3.664;2023-04-03T06:48:43;16.85;;;9.07;;
56043;SDS011;41912;51.022;3.664;2023-04-03T06:51:19;29.25;;;8.98;;
56043;SDS011;41912;51.022;3.664;2023-04-03T06:53:47;22.15;;;8.35;;
56043;SDS011;41912;51.022;3.664;2023-04-03T06:56:13;22.88;;;8.50;;
56043;SDS011;41912;51.022;3.664;2023-04-03T06:58:40;19.92;;;8.35;;
56043;SDS011;41912;51.022;3.664;2023-04-03T07:01:06;15.95;;;7.28;;
56043;SDS011;41912;51.022;3.664;2023-04-03T07:03:34;16.00;;;7.32;;
56043;SDS011;41912;51.022;3.664;2023-04-03T07:06:00;17.38;;;8.10;;
56043;SDS011;41912;51.022;3.664;2023-04-03T07:08:27;11.23;;;6.07;;
56043;SDS011;41912;51.022;3.664;2023-04-03T07:10:53;11.77;;;6.35;;
56043;SDS011;41912;51.022;3.664;2023-04-03T07:13:19;16.95;;;7.88;;
56043;SDS011;41912;51.022;3.664;2023-04-03T07:15:45;16.10;;;6.18;;
56043;SDS011;41912;51.022;3.664;2023-04-03T07:18:10;16.40;;;7.32;;
56043;SDS011;41912;51.022;3.664;2023-04-03T07:20:36;10.60;;;6.28;;
56043;SDS011;41912;51.022;3.664;2023-04-03T07:23:03;13.13;;;6.28;;
56043;SDS011;41912;51.022;3.664;2023-04-03T07:25:28;11.85;;;6.53;;
56043;SDS011;41912;51.022;3.664;2023-04-03T07:27:54;14.32;;;6.47;;
56043;SDS011;41912;51.022;3.664;2023-04-03T07:30:21;12.05;;;6.35;;
56043;SDS011;41912;51.022;3.664;2023-04-03T07:32:47;10.35;;;5.55;;
56043;SDS011;41912;51.022;3.664;2023-04-03T07:35:12;11.48;;;4.95;;
56043;SDS011;41912;51.022;3.664;2023-04-03T07:37:38;12.32;;;5.80;;
56043;SDS011;41912;51.022;3.664;2023-04-03T07:40:04;10.18;;;6.05;;
56043;SDS011;41912;51.022;3.664;2023-04-03T07:42:31;12.88;;;5.72;;
56043;SDS011;41912;51.022;3.664;2023-04-03T07:44:57;11.10;;;5.90;;
56043;SDS011;41912;51.022;3.664;2023-04-03T07:47:23;11.55;;;5.78;;
56043;SDS011;41912;51.022;3.664;2023-04-03T07:49:49;10.63;;;5.35;;
56043;SDS011;41912;51.022;3.664;2023-04-03T07:52:14;18.05;;;6.00;;
56043;SDS011;41912;51.022;3.664;2023-04-03T07:54:40;10.27;;;5.47;;
56043;SDS011;41912;51.022;3.664;2023-04-03T07:57:06;13.25;;;5.60;;
56043;SDS011;41912;51.022;3.664;2023-04-03T07:59:32;9.73;;;5.03;;
56043;SDS011;41912;51.022;3.664;2023-04-03T08:01:58;11.68;;;6.07;;
56043;SDS011;41912;51.022;3.664;2023-04-03T08:04:24;14.18;;;6.25;;
56043;SDS011;41912;51.022;3.664;2023-04-03T08:06:51;8.32;;;5.88;;
56043;SDS011;41912;51.022;3.664;2023-04-03T08:09:17;13.70;;;6.63;;
56043;SDS011;41912;51.022;3.664;2023-04-03T08:11:44;12.68;;;6.07;;
56043;SDS011;41912;51.022;3.664;2023-04-03T08:14:10;11.02;;;5.90;;
56043;SDS011;41912;51.022;3.664;2023-04-03T08:16:41;17.70;;;7.60;;
56043;SDS011;41912;51.022;3.664;2023-04-03T08:19:08;10.13;;;6.25;;
56043;SDS011;41912;51.022;3.664;2023-04-03T08:21:33;13.18;;;6.80;;
56043;SDS011;41912;51.022;3.664;2023-04-03T08:23:59;11.10;;;6.55;;
56043;SDS011;41912;51.022;3.664;2023-04-03T08:26:25;13.18;;;7.05;;
56043;SDS011;41912;51.022;3.664;2023-04-03T08:28:51;12.30;;;7.25;;
56043;SDS011;41912;51.022;3.664;2023-04-03T08:31:18;14.10;;;7.60;;
56043;SDS011;41912;51.022;3.664;2023-04-03T08:33:45;13.00;;;7.80;;
56043;SDS011;41912;51.022;3.664;2023-04-03T08:36:16;11.95;;;7.47;;
56043;SDS011;41912;51.022;3.664;2023-04-03T08:38:43;17.58;;;7.50;;
56043;SDS011;41912;51.022;3.664;2023-04-03T08:49:31;12.93;;;7.47;;
56043;SDS011;41912;51.022;3.664;2023-04-03T08:52:01;11.40;;;6.18;;
56043;SDS011;41912;51.022;3.664;2023-04-03T08:54:41;10.13;;;5.57;;
56043;SDS011;41912;51.022;3.664;2023-04-03T09:00:20;8.27;;;4.78;;
56043;SDS011;41912;51.022;3.664;2023-04-03T09:02:49;8.68;;;4.00;;
56043;SDS011;41912;51.022;3.664;2023-04-03T09:05:35;5.40;;;2.88;;
56043;SDS011;41912;51.022;3.664;2023-04-03T09:08:24;8.68;;;3.45;;
56043;SDS011;41912;51.022;3.664;2023-04-03T09:13:36;4.68;;;2.55;;
56043;SDS011;41912;51.022;3.664;2023-04-03T09:19:02;8.32;;;3.03;;
56043;SDS011;41912;51.022;3.664;2023-04-03T09:21:46;8.18;;;3.33;;
56043;SDS011;41912;51.022;3.664;2023-04-03T09:24:13;7.88;;;2.90;;
56043;SDS011;41912;51.022;3.664;2023-04-03T09:26:44;9.80;;;3.30;;
56043;SDS011;41912;51.022;3.664;2023-04-03T09:29:20;5.50;;;3.03;;
56043;SDS011;41912;51.022;3.664;2023-04-03T09:31:49;7.80;;;3.50;;
56043;SDS011;41912;51.022;3.664;2023-04-03T09:37:38;7.55;;;3.63;;
56043;SDS011;41912;51.022;3.664;2023-04-03T09:40:42;4.70;;;2.38;;
56043;SDS011;41912;51.022;3.664;2023-04-03T09:45:43;5.35;;;2.70;;
56043;SDS011;41912;51.022;3.664;2023-04-03T09:56:35;8.75;;;2.53;;
56043;SDS011;41912;51.022;3.664;2023-04-03T10:01:30;11.50;;;2.67;;
56043;SDS011;41912;51.022;3.664;2023-04-03T10:06:33;5.72;;;2.55;;
56043;SDS011;41912;51.022;3.664;2023-04-03T10:09:27;7.30;;;2.58;;
56043;SDS011;41912;51.022;3.664;2023-04-03T10:14:26;9.55;;;3.38;;
56043;SDS011;41912;51.022;3.664;2023-04-03T10:17:09;10.43;;;3.25;;
56043;SDS011;41912;51.022;3.664;2023-04-03T10:33:01;7.80;;;2.20;;
56043;SDS011;41912;51.022;3.664;2023-04-03T10:35:34;6.15;;;2.05;;
56043;SDS011;41912;51.022;3.664;2023-04-03T10:43:50;6.25;;;2.10;;
56043;SDS011;41912;51.022;3.664;2023-04-03T10:54:50;2.45;;;1.27;;
56043;SDS011;41912;51.022;3.664;2023-04-03T10:57:39;5.30;;;2.10;;
56043;SDS011;41912;51.022;3.664;2023-04-03T11:00:30;5.60;;;1.85;;
56043;SDS011;41912;51.022;3.664;2023-04-03T11:03:13;4.80;;;2.00;;
56043;SDS011;41912;51.022;3.664;2023-04-03T11:05:52;4.55;;;1.70;;
56043;SDS011;41912;51.022;3.664;2023-04-03T11:11:27;5.35;;;2.15;;
56043;SDS011;41912;51.022;3.664;2023-04-03T11:14:05;8.13;;;1.90;;
56043;SDS011;41912;51.022;3.664;2023-04-03T11:17:28;9.57;;;1.77;;
56043;SDS011;41912;51.022;3.664;2023-04-03T11:22:35;4.35;;;1.77;;
56043;SDS011;41912;51.022;3.664;2023-04-03T11:27:38;6.63;;;1.67;;
56043;SDS011;41912;51.022;3.664;2023-04-03T11:30:45;4.53;;;1.27;;
56043;SDS011;41912;51.022;3.664;2023-04-03T11:36:04;5.95;;;1.60;;
56043;SDS011;41912;51.022;3.664;2023-04-03T11:38:43;5.88;;;1.83;;
56043;SDS011;41912;51.022;3.664;2023-04-03T11:41:11;3.05;;;1.63;;
56043;SDS011;41912;51.022;3.664;2023-04-03T11:43:42;4.60;;;1.55;;
56043;SDS011;41912;51.022;3.664;2023-04-03T11:46:22;5.00;;;2.03;;
56043;SDS011;41912;51.022;3.664;2023-04-03T11:49:19;6.18;;;1.58;;
56043;SDS011;41912;51.022;3.664;2023-04-03T11:52:12;3.72;;;1.92;;
56043;SDS011;41912;51.022;3.664;2023-04-03T11:54:58;4.95;;;1.30;;
56043;SDS011;41912;51.022;3.664;2023-04-03T11:57:43;6.25;;;1.30;;
56043;SDS011;41912;51.022;3.664;2023-04-03T12:16:28;8.02;;;1.50;;
56043;SDS011;41912;51.022;3.664;2023-04-03T12:29:24;5.43;;;1.38;;
56043;SDS011;41912;51.022;3.664;2023-04-03T12:35:24;7.95;;;1.45;;
56043;SDS011;41912;51.022;3.664;2023-04-03T12:46:02;3.83;;;1.20;;
56043;SDS011;41912;51.022;3.664;2023-04-03T12:48:30;3.55;;;1.27;;
56043;SDS011;41912;51.022;3.664;2023-04-03T12:50:59;4.47;;;1.52;;
56043;SDS011;41912;51.022;3.664;2023-04-03T12:53:26;3.38;;;1.30;;
56043;SDS011;41912;51.022;3.664;2023-04-03T12:55:55;5.18;;;1.35;;
56043;SDS011;41912;51.022;3.664;2023-04-03T12:58:23;4.75;;;1.33;;
56043;SDS011;41912;51.022;3.664;2023-04-03T13:01:12;4.20;;;2.20;;
56043;SDS011;41912;51.022;3.664;2023-04-03T13:03:44;4.38;;;1.45;;
56043;SDS011;41912;51.022;3.664;2023-04-03T13:06:39;8.57;;;1.42;;
56043;SDS011;41912;51.022;3.664;2023-04-03T13:12:09;6.82;;;1.90;;
56043;SDS011;41912;51.022;3.664;2023-04-03T13:14:37;3.25;;;1.35;;
56043;SDS011;41912;51.022;3.664;2023-04-03T13:17:06;4.10;;;1.42;;
56043;SDS011;41912;51.022;3.664;2023-04-03T13:19:38;4.38;;;1.35;;
56043;SDS011;41912;51.022;3.664;2023-04-03T13:22:05;2.50;;;1.10;;
56043;SDS011;41912;51.022;3.664;2023-04-03T13:24:34;3.00;;;1.20;;
56043;SDS011;41912;51.022;3.664;2023-04-03T13:27:02;3.17;;;1.20;;
56043;SDS011;41912;51.022;3.664;2023-04-03T13:29:30;7.57;;;1.27;;
56043;SDS011;41912;51.022;3.664;2023-04-03T13:31:58;3.38;;;1.05;;
56043;SDS011;41912;51.022;3.664;2023-04-03T13:34:26;2.63;;;1.00;;
56043;SDS011;41912;51.022;3.664;2023-04-03T13:37:00;2.58;;;1.27;;
56043;SDS011;41912;51.022;3.664;2023-04-03T13:39:36;4.57;;;1.23;;
56043;SDS011;41912;51.022;3.664;2023-04-03T13:42:23;3.90;;;1.30;;
56043;SDS011;41912;51.022;3.664;2023-04-03T13:45:07;3.45;;;1.20;;
56043;SDS011;41912;51.022;3.664;2023-04-03T13:47:49;3.92;;;1.40;;
56043;SDS011;41912;51.022;3.664;2023-04-03T13:50:19;3.53;;;1.17;;
56043;SDS011;41912;51.022;3.664;2023-04-03T13:55:25;2.92;;;1.23;;
56043;SDS011;41912;51.022;3.664;2023-04-03T14:00:26;3.33;;;1.55;;
56043;SDS011;41912;51.022;3.664;2023-04-03T14:03:12;4.07;;;1.08;;
56043;SDS011;41912;51.022;3.664;2023-04-03T14:05:58;4.45;;;1.05;;
56043;SDS011;41912;51.022;3.664;2023-04-03T14:08:26;4.47;;;1.20;;
56043;SDS011;41912;51.022;3.664;2023-04-03T14:10:52;4.20;;;1.10;;
56043;SDS011;41912;51.022;3.664;2023-04-03T14:13:19;2.03;;;1.00;;
56043;SDS011;41912;51.022;3.664;2023-04-03T14:15:46;1.80;;;0.93;;
56043;SDS011;41912;51.022;3.664;2023-04-03T14:18:14;3.30;;;1.05;;
56043;SDS011;41912;51.022;3.664;2023-04-03T14:20:43;2.97;;;0.80;;
56043;SDS011;41912;51.022;3.664;2023-04-03T14:23:12;5.95;;;1.17;;
56043;SDS011;41912;51.022;3.664;2023-04-03T14:25:38;4.15;;;0.90;;
56043;SDS011;41912;51.022;3.664;2023-04-03T14:28:18;9.18;;;1.60;;
56043;SDS011;41912;51.022;3.664;2023-04-03T14:30:46;7.05;;;1.73;;
56043;SDS011;41912;51.022;3.664;2023-04-03T14:33:13;2.75;;;1.15;;
56043;SDS011;41912;51.022;3.664;2023-04-03T14:35:40;2.85;;;1.10;;
56043;SDS011;41912;51.022;3.664;2023-04-03T14:40:53;1.85;;;1.13;;
56043;SDS011;41912;51.022;3.664;2023-04-03T14:43:19;7.13;;;1.30;;
56043;SDS011;41912;51.022;3.664;2023-04-03T14:45:45;3.35;;;1.67;;
56043;SDS011;41912;51.022;3.664;2023-04-03T14:48:19;2.40;;;1.30;;
56043;SDS011;41912;51.022;3.664;2023-04-03T14:50:50;2.55;;;1.33;;
56043;SDS011;41912;51.022;3.664;2023-04-03T14:53:17;2.38;;;1.20;;
56043;SDS011;41912;51.022;3.664;2023-04-03T14:55:47;3.05;;;0.90;;
56043;SDS011;41912;51.022;3.664;2023-04-03T14:58:15;4.03;;;1.30;;
56043;SDS011;41912;51.022;3.664;2023-04-03T15:00:42;2.03;;;1.38;;
56043;SDS011;41912;51.022;3.664;2023-04-03T15:03:15;3.25;;;1.30;;
56043;SDS011;41912;51.022;3.664;2023-04-03T15:05:43;2.72;;;1.00;;
56043;SDS011;41912;51.022;3.664;2023-04-03T15:08:20;2.92;;;1.10;;
56043;SDS011;41912;51.022;3.664;2023-04-03T15:10:49;3.63;;;1.77;;
56043;SDS011;41912;51.022;3.664;2023-04-03T15:13:17;2.53;;;1.30;;
56043;SDS011;41912;51.022;3.664;2023-04-03T15:15:44;4.88;;;1.15;;
56043;SDS011;41912;51.022;3.664;2023-04-03T15:18:43;2.88;;;1.10;;
56043;SDS011;41912;51.022;3.664;2023-04-03T15:21:03;4.80;;;1.00;;
56043;SDS011;41912;51.022;3.664;2023-04-03T15:23:29;2.35;;;1.20;;
56043;SDS011;41912;51.022;3.664;2023-04-03T15:25:55;3.25;;;1.20;;
56043;SDS011;41912;51.022;3.664;2023-04-03T15:28:23;5.18;;;1.35;;
56043;SDS011;41912;51.022;3.664;2023-04-03T15:30:54;2.15;;;1.20;;
56043;SDS011;41912;51.022;3.664;2023-04-03T15:33:21;3.03;;;1.10;;
56043;SDS011;41912;51.022;3.664;2023-04-03T15:35:47;6.50;;;1.58;;
56043;SDS011;41912;51.022;3.664;2023-04-03T15:38:13;3.20;;;1.25;;
56043;SDS011;41912;51.022;3.664;2023-04-03T15:40:39;6.63;;;1.08;;
56043;SDS011;41912;51.022;3.664;2023-04-03T15:43:05;2.22;;;0.88;;
56043;SDS011;41912;51.022;3.664;2023-04-03T15:45:31;3.05;;;1.25;;
56043;SDS011;41912;51.022;3.664;2023-04-03T15:47:59;2.88;;;1.20;;
56043;SDS011;41912;51.022;3.664;2023-04-03T15:50:25;3.90;;;0.90;;
56043;SDS011;41912;51.022;3.664;2023-04-03T15:52:51;3.70;;;1.20;;
56043;SDS011;41912;51.022;3.664;2023-04-03T15:55:30;4.78;;;1.20;;
56043;SDS011;41912;51.022;3.664;2023-04-03T15:57:58;2.42;;;1.10;;
56043;SDS011;41912;51.022;3.664;2023-04-03T16:00:24;3.35;;;1.45;;
56043;SDS011;41912;51.022;3.664;2023-04-03T16:03:10;3.90;;;1.15;;
56043;SDS011;41912;51.022;3.664;2023-04-03T16:05:39;3.40;;;1.58;;
56043;SDS011;41912;51.022;3.664;2023-04-03T16:08:05;4.10;;;1.20;;
56043;SDS011;41912;51.022;3.664;2023-04-03T16:10:33;3.33;;;1.00;;
56043;SDS011;41912;51.022;3.664;2023-04-03T16:13:02;2.58;;;1.30;;
56043;SDS011;41912;51.022;3.664;2023-04-03T16:15:29;4.43;;;1.25;;
56043;SDS011;41912;51.022;3.664;2023-04-03T16:17:55;1.83;;;0.90;;
56043;SDS011;41912;51.022;3.664;2023-04-03T16:20:23;2.55;;;1.10;;
56043;SDS011;41912;51.022;3.664;2023-04-03T16:22:48;2.60;;;1.00;;
56043;SDS011;41912;51.022;3.664;2023-04-03T16:25:14;4.28;;;1.33;;
56043;SDS011;41912;51.022;3.664;2023-04-03T16:27:40;1.67;;;1.00;;
56043;SDS011;41912;51.022;3.664;2023-04-03T16:30:06;6.75;;;1.50;;
56043;SDS011;41912;51.022;3.664;2023-04-03T16:32:33;2.45;;;1.05;;
56043;SDS011;41912;51.022;3.664;2023-04-03T16:34:59;2.63;;;1.27;;
56043;SDS011;41912;51.022;3.664;2023-04-03T16:37:25;3.97;;;1.27;;
56043;SDS011;41912;51.022;3.664;2023-04-03T16:39:51;2.38;;;1.02;;
56043;SDS011;41912;51.022;3.664;2023-04-03T16:42:17;3.72;;;1.90;;
56043;SDS011;41912;51.022;3.664;2023-04-03T16:44:43;4.50;;;1.00;;
56043;SDS011;41912;51.022;3.664;2023-04-03T16:47:08;3.72;;;1.30;;
56043;SDS011;41912;51.022;3.664;2023-04-03T16:49:35;2.90;;;1.10;;
56043;SDS011;41912;51.022;3.664;2023-04-03T16:52:01;4.85;;;1.95;;
56043;SDS011;41912;51.022;3.664;2023-04-03T16:54:28;5.28;;;1.35;;
56043;SDS011;41912;51.022;3.664;2023-04-03T16:56:54;7.47;;;1.65;;
56043;SDS011;41912;51.022;3.664;2023-04-03T16:59:20;5.63;;;1.27;;
56043;SDS011;41912;51.022;3.664;2023-04-03T17:01:45;4.05;;;1.30;;
56043;SDS011;41912;51.022;3.664;2023-04-03T17:04:11;3.72;;;1.00;;
56043;SDS011;41912;51.022;3.664;2023-04-03T17:06:37;4.68;;;1.25;;
56043;SDS011;41912;51.022;3.664;2023-04-03T17:09:04;4.68;;;1.45;;
56043;SDS011;41912;51.022;3.664;2023-04-03T17:11:30;2.38;;;0.80;;
56043;SDS011;41912;51.022;3.664;2023-04-03T17:13:56;3.10;;;1.10;;